Time;durP1;ratioP1;P1;durP2;ratioP2;P2;SDS_P1;SDS_P2;PMS_P1;PMS_P2;Temp;Humidity;BMP_temperature;BMP_pressure;BME280_temperature;BME280_humidity;BME280_pressure;Samples;Min_cycle;Max_cycle;Signal;HPM_P1;HPM_P2
2022/11/14 00:01:53;;;;;;;18.37;15.90;;;7.00;99.90;;;;;;5033114;28;20294;-78
2022/11/14 00:04:20;;;;;;;17.50;15.53;;;7.00;99.90;;;;;;5031812;28;20195;-79
2022/11/14 00:06:49;;;;;;;19.30;16.07;;;6.90;99.90;;;;;;5033166;28;20198;-79
2022/11/14 00:09:16;;;;;;;21.20;16.20;;;6.90;99.90;;;;;;5032336;28;20206;-78
2022/11/14 00:11:43;;;;;;;22.50;16.60;;;6.90;99.90;;;;;;5032206;28;20202;-78
2022/11/14 00:14:12;;;;;;;19.90;15.50;;;6.90;99.90;;;;;;5032858;28;20223;-79
2022/11/14 00:16:39;;;;;;;20.80;17.47;;;6.80;99.90;;;;;;5033006;28;20202;-79
2022/11/14 00:19:06;;;;;;;21.70;17.10;;;6.80;99.90;;;;;;5032399;28;20199;-78
2022/11/14 00:21:33;;;;;;;21.07;17.47;;;6.80;99.90;;;;;;5033049;28;20203;-79
2022/11/14 00:24:02;;;;;;;21.17;16.70;;;6.80;99.90;;;;;;5032973;28;20205;-78
2022/11/14 00:26:29;;;;;;;19.50;16.73;;;6.80;99.90;;;;;;5032418;28;20207;-77
2022/11/14 00:28:56;;;;;;;20.97;17.13;;;6.80;99.90;;;;;;5033146;28;20210;-78
2022/11/14 00:31:23;;;;;;;25.57;19.60;;;6.70;99.90;;;;;;5032484;28;20209;-78
2022/11/14 00:33:50;;;;;;;23.30;18.50;;;6.70;99.90;;;;;;5031662;28;20226;-79
2022/11/14 00:36:17;;;;;;;20.50;17.30;;;6.70;99.90;;;;;;5032585;28;20618;-78
2022/11/14 00:38:44;;;;;;;21.70;17.87;;;6.70;99.90;;;;;;5033652;28;20294;-77
2022/11/14 00:41:12;;;;;;;25.17;20.40;;;6.70;99.90;;;;;;5031943;28;20215;-78
2022/11/14 00:43:39;;;;;;;24.97;19.63;;;6.70;99.90;;;;;;5032555;28;20199;-77
2022/11/14 00:46:06;;;;;;;23.97;18.10;;;6.70;99.90;;;;;;5031798;28;20203;-78
2022/11/14 00:48:33;;;;;;;23.43;18.67;;;6.70;99.90;;;;;;5032348;28;20232;-77
2022/11/14 00:51:00;;;;;;;21.60;17.83;;;6.60;99.90;;;;;;5031656;28;20361;-78
2022/11/14 00:53:26;;;;;;;24.03;18.93;;;6.60;99.90;;;;;;5031499;28;20293;-78
2022/11/14 00:55:53;;;;;;;24.57;20.00;;;6.60;99.90;;;;;;5032509;28;20226;-78
2022/11/14 00:58:21;;;;;;;23.87;18.93;;;6.60;99.90;;;;;;5031908;28;20539;-77
2022/11/14 01:00:48;;;;;;;28.27;21.10;;;6.50;99.90;;;;;;5031731;28;20591;-78
2022/11/14 01:03:15;;;;;;;26.77;20.20;;;6.50;99.90;;;;;;5032048;28;20209;-78
2022/11/14 01:05:42;;;;;;;29.93;20.50;;;6.50;99.90;;;;;;5032272;28;20667;-78
2022/11/14 01:08:09;;;;;;;29.23;21.37;;;6.50;99.90;;;;;;5031246;28;20289;-78
2022/11/14 01:10:39;;;;;;;30.17;23.27;;;6.50;99.90;;;;;;5034922;28;20216;-80
2022/11/14 01:13:06;;;;;;;32.17;23.50;;;6.50;99.90;;;;;;5052128;28;20237;-78
2022/11/14 01:15:38;;;;;;;33.70;24.17;;;6.50;99.90;;;;;;5051131;28;20630;-78
2022/11/14 01:18:06;;;;;;;36.37;24.50;;;6.40;99.90;;;;;;5051021;28;20198;-78
2022/11/14 01:20:33;;;;;;;34.17;24.57;;;6.40;99.90;;;;;;5052225;28;20245;-77
2022/11/14 01:22:59;;;;;;;36.10;25.50;;;6.40;99.90;;;;;;5043647;28;20195;-78
2022/11/14 01:25:26;;;;;;;33.60;24.93;;;6.40;99.90;;;;;;5032145;28;20717;-78
2022/11/14 01:27:53;;;;;;;33.60;24.40;;;6.40;99.90;;;;;;5032019;28;20202;-79
2022/11/14 01:30:20;;;;;;;36.50;25.60;;;6.40;99.90;;;;;;5031104;28;20238;-78
2022/11/14 01:32:48;;;;;;;41.67;28.40;;;6.40;99.90;;;;;;5032037;28;20240;-78
2022/11/14 01:35:15;;;;;;;37.53;27.27;;;6.40;99.90;;;;;;5031301;28;20227;-78
2022/11/14 01:37:42;;;;;;;39.00;25.77;;;6.40;99.90;;;;;;5032065;28;20622;-78
2022/11/14 01:40:10;;;;;;;38.20;26.80;;;6.30;99.90;;;;;;5031820;28;20597;-79
2022/11/14 01:42:37;;;;;;;40.10;28.13;;;6.30;99.90;;;;;;5030704;28;20206;-77
2022/11/14 01:45:37;;;;;;;36.50;26.43;;;6.30;99.90;;;;;;5039089;28;20506;-78
2022/11/14 01:48:17;;;;;;;36.10;24.73;;;6.20;99.90;;;;;;5051702;28;20212;-79
2022/11/14 01:50:44;;;;;;;38.40;25.97;;;6.20;99.90;;;;;;5046971;28;20249;-79
2022/11/14 01:53:11;;;;;;;38.57;26.37;;;6.20;99.90;;;;;;5031906;28;20199;-79
2022/11/14 01:55:38;;;;;;;38.67;25.33;;;6.20;99.90;;;;;;5031699;28;20525;-79
2022/11/14 01:58:05;;;;;;;40.00;28.53;;;6.20;99.90;;;;;;5030750;28;20282;-81
2022/11/14 02:00:32;;;;;;;39.13;27.43;;;6.20;99.90;;;;;;5031041;28;20615;-79
2022/11/14 02:03:03;;;;;;;48.23;29.30;;;6.20;99.90;;;;;;5032203;28;20205;-78
2022/11/14 02:05:32;;;;;;;41.17;27.47;;;6.20;99.90;;;;;;5031028;28;20191;-78
2022/11/14 02:07:59;;;;;;;44.03;30.50;;;6.10;99.90;;;;;;5031450;28;20205;-78
2022/11/14 02:10:26;;;;;;;45.30;29.53;;;6.10;99.90;;;;;;5030720;28;20578;-78
2022/11/14 02:12:53;;;;;;;43.23;28.57;;;6.10;99.90;;;;;;5031787;28;20220;-78
2022/11/14 02:15:20;;;;;;;42.57;28.17;;;6.10;99.90;;;;;;5031576;28;20527;-78
2022/11/14 02:17:47;;;;;;;39.50;28.20;;;6.10;99.90;;;;;;5030960;28;20207;-77
2022/11/14 02:20:21;;;;;;;46.87;30.73;;;6.10;99.90;;;;;;5031010;28;20331;-78
2022/11/14 02:22:48;;;;;;;44.67;29.57;;;6.10;99.90;;;;;;5031376;28;20218;-78
2022/11/14 02:25:18;;;;;;;46.37;29.20;;;6.00;99.90;;;;;;5030567;28;20680;-78
2022/11/14 02:27:45;;;;;;;48.93;29.57;;;6.00;99.90;;;;;;5034349;28;20572;-78
2022/11/14 02:30:14;;;;;;;48.33;31.43;;;6.00;99.90;;;;;;5034933;28;20210;-79
2022/11/14 02:32:41;;;;;;;43.90;29.33;;;6.00;99.90;;;;;;5034404;28;20211;-79
2022/11/14 02:35:08;;;;;;;50.43;32.47;;;6.00;99.90;;;;;;5034559;28;20214;-78
2022/11/14 02:37:37;;;;;;;44.90;29.73;;;5.90;99.90;;;;;;5034000;28;20256;-79
2022/11/14 02:40:05;;;;;;;47.13;30.20;;;5.90;99.90;;;;;;5034715;28;20615;-79
2022/11/14 02:42:32;;;;;;;46.60;29.77;;;5.90;99.90;;;;;;5034934;28;20203;-79
2022/11/14 02:44:59;;;;;;;51.53;31.07;;;5.90;99.90;;;;;;5035108;28;20202;-81
2022/11/14 02:47:26;;;;;;;46.70;29.60;;;5.90;99.90;;;;;;5034426;28;20211;-80
2022/11/14 02:49:53;;;;;;;46.07;29.83;;;5.80;99.90;;;;;;5034821;28;20242;-79
2022/11/14 02:52:20;;;;;;;51.13;32.10;;;5.80;99.90;;;;;;5034788;28;20632;-79
2022/11/14 02:54:48;;;;;;;49.43;31.17;;;5.80;99.90;;;;;;5034226;28;20219;-81
2022/11/14 02:57:15;;;;;;;48.40;31.67;;;5.80;99.90;;;;;;5034990;28;20289;-79
2022/11/14 02:59:42;;;;;;;50.07;32.10;;;5.80;99.90;;;;;;5033923;28;20210;-79
2022/11/14 03:02:09;;;;;;;52.27;30.93;;;5.80;99.90;;;;;;5034595;28;20207;-79
2022/11/14 03:04:36;;;;;;;50.47;31.73;;;5.70;99.90;;;;;;5034658;28;20198;-79
2022/11/14 03:07:03;;;;;;;56.50;34.50;;;5.70;99.90;;;;;;5016910;28;20199;-78
2022/11/14 03:09:29;;;;;;;54.50;31.97;;;5.70;99.90;;;;;;5034072;28;20206;-79
2022/11/14 03:11:58;;;;;;;48.10;31.83;;;5.70;99.90;;;;;;5034264;28;20203;-79
2022/11/14 03:14:24;;;;;;;52.20;32.07;;;5.70;99.90;;;;;;5032980;28;20207;-79
2022/11/14 03:16:51;;;;;;;51.13;31.10;;;5.70;99.90;;;;;;5033305;28;20322;-79
2022/11/14 03:19:18;;;;;;;53.47;33.30;;;5.60;99.90;;;;;;5034492;28;20353;-79
2022/11/14 03:21:45;;;;;;;53.93;32.13;;;5.60;99.90;;;;;;5033561;28;20293;-79
2022/11/14 03:24:12;;;;;;;54.17;34.40;;;5.60;99.90;;;;;;5034124;28;20198;-79
2022/11/14 03:26:39;;;;;;;52.00;31.43;;;5.60;99.90;;;;;;5033506;28;20488;-79
2022/11/14 03:29:08;;;;;;;56.47;33.17;;;5.60;99.90;;;;;;5041149;28;20612;-79
2022/11/14 03:31:35;;;;;;;54.57;32.60;;;5.60;99.90;;;;;;5053789;28;20686;-80
2022/11/14 03:34:02;;;;;;;59.40;33.53;;;5.60;99.90;;;;;;5053782;28;20285;-79
2022/11/14 03:36:28;;;;;;;56.77;33.87;;;5.60;99.90;;;;;;5040419;28;20397;-79
2022/11/14 03:38:55;;;;;;;54.60;33.30;;;5.60;99.90;;;;;;5035332;28;20285;-79
2022/11/14 03:41:22;;;;;;;56.07;34.00;;;5.60;99.90;;;;;;5033972;28;20194;-79
2022/11/14 03:43:49;;;;;;;61.60;35.33;;;5.60;99.90;;;;;;5033364;28;20198;-79
2022/11/14 03:46:17;;;;;;;56.13;32.77;;;5.60;99.90;;;;;;5035325;28;20203;-79
2022/11/14 03:48:44;;;;;;;55.47;33.13;;;5.60;99.90;;;;;;5034124;28;20213;-79
2022/11/14 03:51:11;;;;;;;62.87;35.97;;;5.60;99.90;;;;;;5032889;28;20243;-80
2022/11/14 03:53:38;;;;;;;58.60;33.03;;;5.60;99.90;;;;;;5033188;28;20198;-79
2022/11/14 03:56:05;;;;;;;60.30;33.83;;;5.60;99.90;;;;;;5045849;28;20546;-79
2022/11/14 03:58:32;;;;;;;59.93;34.10;;;5.50;99.90;;;;;;5053497;28;20208;-79
2022/11/14 04:00:59;;;;;;;60.20;33.97;;;5.50;99.90;;;;;;5053589;28;20202;-78
2022/11/14 04:03:27;;;;;;;62.20;36.47;;;5.50;99.90;;;;;;5051626;28;20299;-80
2022/11/14 04:05:54;;;;;;;63.30;34.97;;;5.50;99.90;;;;;;5047110;28;20213;-79
2022/11/14 04:08:21;;;;;;;60.07;34.20;;;5.50;99.90;;;;;;5033151;28;20511;-79
2022/11/14 04:10:48;;;;;;;61.17;35.30;;;5.50;99.90;;;;;;5032662;28;20292;-79
2022/11/14 04:13:15;;;;;;;57.77;33.43;;;5.50;99.90;;;;;;5033020;28;20201;-79
2022/11/14 04:15:42;;;;;;;64.17;34.80;;;5.60;99.90;;;;;;5033431;28;20309;-79
2022/11/14 04:18:09;;;;;;;60.20;34.33;;;5.60;99.90;;;;;;5032502;28;20198;-79
2022/11/14 04:20:37;;;;;;;67.53;35.87;;;5.50;99.90;;;;;;5033933;28;20205;-79
2022/11/14 04:23:04;;;;;;;59.87;35.23;;;5.50;99.90;;;;;;5052924;28;20289;-79
2022/11/14 04:25:31;;;;;;;68.20;36.20;;;5.50;99.90;;;;;;5052057;28;20569;-79
2022/11/14 04:27:57;;;;;;;62.83;35.77;;;5.50;99.90;;;;;;5052951;28;20197;-78
2022/11/14 04:30:24;;;;;;;62.13;35.97;;;5.50;99.90;;;;;;5039547;28;20234;-79
2022/11/14 04:32:51;;;;;;;64.10;36.37;;;5.50;99.90;;;;;;5046252;28;20206;-78
2022/11/14 04:35:18;;;;;;;60.67;34.00;;;5.50;99.90;;;;;;5052388;28;20237;-78
2022/11/14 04:37:46;;;;;;;58.37;33.40;;;5.50;99.90;;;;;;5040771;28;20502;-79
2022/11/14 04:40:13;;;;;;;63.30;34.67;;;5.50;99.90;;;;;;5032421;28;20202;-79
2022/11/14 04:42:40;;;;;;;67.30;35.73;;;5.50;99.90;;;;;;5032503;28;20213;-78
2022/11/14 04:45:08;;;;;;;69.60;37.33;;;5.50;99.90;;;;;;5032094;28;20201;-78
2022/11/14 04:47:35;;;;;;;65.47;34.87;;;5.50;99.90;;;;;;5035788;28;20210;-80
2022/11/14 04:50:02;;;;;;;63.47;34.83;;;5.50;99.90;;;;;;5051903;28;20316;-79
2022/11/14 04:52:29;;;;;;;67.73;36.27;;;5.50;99.90;;;;;;5051814;28;20194;-78
2022/11/14 04:54:58;;;;;;;76.40;38.43;;;5.50;99.90;;;;;;5035633;28;20230;-78
2022/11/14 04:57:24;;;;;;;71.03;37.20;;;5.50;99.90;;;;;;5033021;28;20195;-78
2022/11/14 04:59:51;;;;;;;63.43;34.67;;;5.50;99.90;;;;;;5050996;28;20205;-80
2022/11/14 05:02:18;;;;;;;70.90;37.77;;;5.50;99.90;;;;;;5052249;28;20206;-79
2022/11/14 05:04:47;;;;;;;66.90;36.13;;;5.60;99.90;;;;;;5041289;28;20297;-79
2022/11/14 05:07:14;;;;;;;65.93;35.70;;;5.50;99.90;;;;;;5031864;28;20281;-79
2022/11/14 05:09:41;;;;;;;69.10;36.70;;;5.50;99.90;;;;;;5032956;28;20614;-78
2022/11/14 05:12:09;;;;;;;64.27;36.57;;;5.50;99.90;;;;;;5032377;28;20199;-79
2022/11/14 05:14:36;;;;;;;61.90;35.03;;;5.50;99.90;;;;;;5031794;28;20757;-79
2022/11/14 05:17:03;;;;;;;65.37;37.17;;;5.40;99.90;;;;;;5032328;28;20232;-79
2022/11/14 05:19:30;;;;;;;61.40;34.27;;;5.40;99.90;;;;;;5031827;28;20583;-80
2022/11/14 05:21:57;;;;;;;63.13;33.70;;;5.40;99.90;;;;;;5031866;28;20205;-79
2022/11/14 05:24:24;;;;;;;61.17;34.37;;;5.40;99.90;;;;;;5032098;28;20536;-79
2022/11/14 05:26:51;;;;;;;65.87;35.63;;;5.40;99.90;;;;;;5031566;28;20205;-79
2022/11/14 05:29:20;;;;;;;61.43;33.57;;;5.40;99.90;;;;;;5038106;28;20225;-78
2022/11/14 05:31:47;;;;;;;58.27;32.57;;;5.40;99.90;;;;;;5051725;28;20210;-79
2022/11/14 05:34:13;;;;;;;61.03;33.03;;;5.40;99.90;;;;;;5027592;28;20206;-79
2022/11/14 05:36:40;;;;;;;63.40;35.17;;;5.40;99.90;;;;;;5031145;28;20229;-79
2022/11/14 05:39:07;;;;;;;65.00;36.53;;;5.30;99.90;;;;;;5032705;28;20657;-79
2022/11/14 05:41:34;;;;;;;59.03;32.90;;;5.30;99.90;;;;;;5049675;28;20205;-79
2022/11/14 05:44:01;;;;;;;56.23;33.60;;;5.30;99.90;;;;;;5051009;28;20285;-79
2022/11/14 05:46:29;;;;;;;57.57;32.63;;;5.30;99.90;;;;;;5052100;28;20222;-79
2022/11/14 05:48:56;;;;;;;57.00;32.67;;;5.30;99.90;;;;;;5046515;28;20214;-79
2022/11/14 05:51:22;;;;;;;61.57;33.77;;;5.30;99.90;;;;;;5032896;28;20242;-79
2022/11/14 05:53:49;;;;;;;58.37;34.53;;;5.20;99.90;;;;;;5032073;28;20202;-79
2022/11/14 05:56:16;;;;;;;63.07;34.63;;;5.30;99.90;;;;;;5039210;28;20225;-79
2022/11/14 05:58:43;;;;;;;69.97;36.23;;;5.30;99.90;;;;;;5051802;28;20733;-79
2022/11/14 06:01:12;;;;;;;59.93;33.33;;;5.30;99.90;;;;;;5052989;28;20237;-79
2022/11/14 06:03:41;;;;;;;61.40;33.90;;;5.20;99.90;;;;;;5037903;28;20318;-79
2022/11/14 06:06:10;;;;;;;56.97;32.00;;;5.20;99.90;;;;;;5036853;28;20207;-79
2022/11/14 06:08:38;;;;;;;57.90;33.10;;;5.20;99.90;;;;;;5035763;28;20693;-79
2022/11/14 06:11:07;;;;;;;62.37;34.57;;;5.20;99.90;;;;;;5034980;28;20206;-79
2022/11/14 06:13:34;;;;;;;63.53;34.27;;;5.20;99.90;;;;;;5035440;28;20210;-79
2022/11/14 06:16:01;;;;;;;68.70;36.70;;;5.20;99.90;;;;;;5036372;28;20303;-78
2022/11/14 06:18:30;;;;;;;65.30;35.60;;;5.20;99.90;;;;;;5034851;28;20657;-79
2022/11/14 06:21:01;;;;;;;62.87;34.23;;;5.20;99.90;;;;;;5042941;28;20213;-79
2022/11/14 06:23:28;;;;;;;71.33;35.53;;;5.20;99.90;;;;;;5055503;28;20551;-80
2022/11/14 06:26:00;;;;;;;63.90;34.50;;;5.20;99.90;;;;;;5036002;28;20599;-79
2022/11/14 06:28:27;;;;;;;63.97;34.80;;;5.20;99.90;;;;;;5053516;28;20213;-80
2022/11/14 06:30:58;;;;;;;64.20;35.60;;;5.20;99.90;;;;;;5054975;28;20198;-80
2022/11/14 06:33:25;;;;;;;63.40;34.23;;;5.20;99.90;;;;;;5043991;28;20595;-79
2022/11/14 06:35:58;;;;;;;57.10;33.43;;;5.20;99.90;;;;;;5034992;28;20226;-79
2022/11/14 06:38:26;;;;;;;65.67;35.93;;;5.20;99.90;;;;;;5035805;28;20265;-78
2022/11/14 06:40:53;;;;;;;66.23;34.37;;;5.20;99.90;;;;;;5034487;28;20209;-80
2022/11/14 06:43:19;;;;;;;59.53;31.47;;;5.20;99.90;;;;;;5035003;28;20202;-79
2022/11/14 06:45:46;;;;;;;62.90;34.10;;;5.20;99.90;;;;;;5034334;28;20195;-80
2022/11/14 06:48:13;;;;;;;63.13;32.37;;;5.10;99.90;;;;;;5035473;28;20506;-78
2022/11/14 06:50:40;;;;;;;58.77;33.40;;;5.20;99.90;;;;;;5034401;28;20251;-79
2022/11/14 06:53:07;;;;;;;64.47;35.60;;;5.10;99.90;;;;;;5034770;28;20729;-79
2022/11/14 06:55:35;;;;;;;64.57;33.90;;;5.10;99.90;;;;;;5034851;28;20226;-79
2022/11/14 06:58:02;;;;;;;63.97;33.43;;;5.10;99.90;;;;;;5035132;28;20202;-79
2022/11/14 07:00:28;;;;;;;60.27;31.80;;;5.10;99.90;;;;;;5033912;28;20207;-79
2022/11/14 07:02:55;;;;;;;61.13;32.70;;;5.10;99.90;;;;;;5037954;28;20612;-78
2022/11/14 07:05:22;;;;;;;66.90;34.13;;;5.10;99.90;;;;;;5054687;28;20198;-81
2022/11/14 07:07:49;;;;;;;60.60;33.70;;;5.10;99.90;;;;;;5053775;28;20357;-79
2022/11/14 07:10:16;;;;;;;59.07;32.90;;;5.00;99.90;;;;;;5041447;28;20210;-79
2022/11/14 07:12:44;;;;;;;60.07;34.30;;;5.00;99.90;;;;;;5033784;28;20198;-79
2022/11/14 07:15:11;;;;;;;61.63;31.90;;;5.00;99.90;;;;;;5034844;28;20217;-79
2022/11/14 07:17:38;;;;;;;59.47;32.13;;;5.00;99.90;;;;;;5034393;28;20228;-79
2022/11/14 07:20:07;;;;;;;56.03;31.30;;;5.10;99.90;;;;;;5033770;28;20203;-79
2022/11/14 07:22:33;;;;;;;63.27;32.60;;;5.10;99.90;;;;;;5034220;28;20205;-79
2022/11/14 07:25:00;;;;;;;53.93;31.60;;;5.00;99.90;;;;;;5052466;28;20214;-79
2022/11/14 07:27:27;;;;;;;60.97;33.20;;;5.00;99.90;;;;;;5053554;28;20194;-79
2022/11/14 07:29:55;;;;;;;55.13;31.30;;;5.00;99.90;;;;;;5054496;28;20476;-80
2022/11/14 07:32:22;;;;;;;58.20;32.03;;;5.00;99.90;;;;;;5045949;28;20221;-79
2022/11/14 07:34:49;;;;;;;55.97;31.57;;;5.00;99.90;;;;;;5037831;28;20504;-80
2022/11/14 07:37:16;;;;;;;64.37;33.20;;;5.00;99.90;;;;;;5053853;28;20222;-80
2022/11/14 07:39:44;;;;;;;61.93;32.63;;;5.00;99.90;;;;;;5054083;28;20292;-79
2022/11/14 07:42:11;;;;;;;62.17;32.23;;;5.00;99.90;;;;;;5046658;28;20669;-79
2022/11/14 07:44:38;;;;;;;54.23;30.57;;;5.00;99.90;;;;;;5034506;28;20281;-79
2022/11/14 07:47:06;;;;;;;57.80;29.43;;;5.00;99.90;;;;;;5053167;28;20220;-79
2022/11/14 07:49:34;;;;;;;52.07;28.57;;;5.00;99.90;;;;;;5052824;28;20249;-80
2022/11/14 07:52:00;;;;;;;55.30;31.23;;;5.00;99.90;;;;;;5039425;28;20217;-79
2022/11/14 07:54:27;;;;;;;59.63;32.27;;;5.00;99.90;;;;;;5033373;28;20495;-80
2022/11/14 07:56:54;;;;;;;56.13;31.10;;;5.00;99.90;;;;;;5033732;28;20829;-80
2022/11/14 07:59:21;;;;;;;63.40;31.97;;;5.00;99.90;;;;;;5033732;28;20202;-80
2022/11/14 08:01:48;;;;;;;56.70;33.07;;;5.00;99.90;;;;;;5044263;28;20540;-79
2022/11/14 08:04:16;;;;;;;56.73;31.30;;;5.10;99.90;;;;;;5034699;28;20206;-80
2022/11/14 08:06:43;;;;;;;58.00;30.37;;;5.00;99.90;;;;;;5042303;28;20230;-80
2022/11/14 08:09:10;;;;;;;55.93;30.83;;;5.00;99.90;;;;;;5035183;28;20210;-78
2022/11/14 08:11:49;;;;;;;51.43;29.93;;;5.10;99.90;;;;;;5052906;28;20209;-79
2022/11/14 08:14:16;;;;;;;55.50;28.63;;;5.10;99.90;;;;;;5045900;28;20198;-79
2022/11/14 08:16:43;;;;;;;53.70;30.23;;;5.10;99.90;;;;;;5040624;28;20217;-79
2022/11/14 08:19:10;;;;;;;56.93;31.47;;;5.10;99.90;;;;;;5052873;28;20198;-80
2022/11/14 08:21:38;;;;;;;59.00;30.47;;;5.20;99.90;;;;;;5044797;28;20637;-80
2022/11/14 08:24:05;;;;;;;59.70;32.10;;;5.20;99.90;;;;;;5050913;28;20213;-80
2022/11/14 08:26:32;;;;;;;59.23;32.60;;;5.20;99.90;;;;;;5052806;28;20197;-80
2022/11/14 08:28:59;;;;;;;54.47;30.37;;;5.20;99.90;;;;;;5052506;28;20217;-80
2022/11/14 08:31:26;;;;;;;59.33;32.07;;;5.30;99.90;;;;;;5044650;28;20206;-80
2022/11/14 08:33:53;;;;;;;56.73;30.57;;;5.30;99.90;;;;;;5051017;28;20220;-80
2022/11/14 08:36:20;;;;;;;57.50;31.83;;;5.30;99.90;;;;;;5052578;28;20222;-80
2022/11/14 08:38:49;;;;;;;54.30;29.77;;;5.30;99.90;;;;;;5051651;28;20301;-79
2022/11/14 08:41:16;;;;;;;58.20;31.40;;;5.40;99.90;;;;;;5044084;28;20210;-80
2022/11/14 08:43:43;;;;;;;51.50;28.67;;;5.40;99.90;;;;;;5042350;28;20590;-79
2022/11/14 08:46:10;;;;;;;57.97;31.30;;;5.50;99.90;;;;;;5050504;28;20190;-80
2022/11/14 08:48:37;;;;;;;53.57;30.10;;;5.50;99.90;;;;;;5049770;28;20255;-80
2022/11/14 08:51:05;;;;;;;51.17;29.93;;;5.50;99.90;;;;;;5051830;28;20238;-79
2022/11/14 08:53:32;;;;;;;50.53;28.80;;;5.60;99.90;;;;;;5051721;28;20216;-80
2022/11/14 08:56:00;;;;;;;53.77;29.87;;;5.60;99.90;;;;;;5045920;28;20214;-78
2022/11/14 08:58:29;;;;;;;52.43;29.83;;;5.70;99.90;;;;;;5041645;28;20203;-80
2022/11/14 09:01:00;;;;;;;51.20;30.13;;;5.70;99.90;;;;;;5045716;28;20221;-78
2022/11/14 09:03:27;;;;;;;56.57;29.30;;;5.70;99.90;;;;;;5058758;28;20198;-79
2022/11/14 09:05:54;;;;;;;48.73;28.07;;;5.80;99.90;;;;;;5042139;28;20288;-79
2022/11/14 09:08:21;;;;;;;53.23;30.70;;;5.80;99.90;;;;;;5051318;28;20202;-79
2022/11/14 09:10:48;;;;;;;57.63;31.77;;;5.80;99.90;;;;;;5032818;28;20202;-79
2022/11/14 09:13:16;;;;;;;53.23;27.77;;;5.90;99.90;;;;;;5048375;28;20198;-79
2022/11/14 09:15:43;;;;;;;44.13;26.77;;;5.90;99.90;;;;;;5051268;28;20206;-79
2022/11/14 09:18:11;;;;;;;50.63;29.47;;;5.90;99.90;;;;;;5051092;28;20520;-79
2022/11/14 09:20:38;;;;;;;55.63;29.20;;;6.00;99.90;;;;;;5049384;28;20224;-78
2022/11/14 09:23:06;;;;;;;49.33;27.90;;;6.00;99.90;;;;;;5051298;28;20213;-79
2022/11/14 09:25:33;;;;;;;52.10;30.80;;;6.10;99.90;;;;;;5051712;28;20198;-78
2022/11/14 09:28:04;;;;;;;46.77;27.73;;;6.10;99.90;;;;;;5043597;28;20725;-78
2022/11/14 09:30:32;;;;;;;44.67;26.83;;;6.20;99.90;;;;;;5031886;28;20194;-78
2022/11/14 09:33:01;;;;;;;46.43;27.27;;;6.20;99.90;;;;;;5055859;28;20201;-79
2022/11/14 09:35:28;;;;;;;48.80;28.73;;;6.20;99.90;;;;;;5070725;28;20625;-80
2022/11/14 09:38:02;;;;;;;45.87;26.53;;;6.30;99.90;;;;;;5063639;28;20252;-78
2022/11/14 09:40:29;;;;;;;43.10;26.17;;;6.40;99.90;;;;;;5053737;28;20330;-78
2022/11/14 09:43:15;;;;;;;48.07;27.13;;;6.40;99.90;;;;;;5050163;28;20282;-79
2022/11/14 09:45:48;;;;;;;48.57;27.90;;;6.50;99.90;;;;;;5051573;28;20280;-77
2022/11/14 09:48:19;;;;;;;43.17;25.67;;;6.50;99.90;;;;;;5043012;28;20186;-78
2022/11/14 09:50:52;;;;;;;47.13;26.13;;;6.60;99.90;;;;;;5039905;28;20738;-77
2022/11/14 09:53:28;;;;;;;46.93;28.67;;;6.60;99.90;;;;;;5060585;28;20201;-78
2022/11/14 09:55:54;;;;;;;42.10;25.60;;;6.70;99.90;;;;;;5074747;28;20193;-78
2022/11/14 09:58:22;;;;;;;43.27;25.17;;;6.80;99.90;;;;;;5074373;28;20217;-77
2022/11/14 10:00:58;;;;;;;41.83;25.57;;;6.90;99.90;;;;;;5073078;28;20203;-78
2022/11/14 10:03:33;;;;;;;41.57;25.43;;;6.90;99.90;;;;;;5044937;28;20197;-78
2022/11/14 10:06:22;;;;;;;39.70;24.47;;;6.90;99.90;;;;;;5055164;28;20186;-78
2022/11/14 10:09:02;;;;;;;39.70;24.43;;;7.00;99.90;;;;;;5049917;28;20198;-77
2022/11/14 10:11:35;;;;;;;41.37;24.47;;;7.10;99.90;;;;;;5054776;28;20200;-78
2022/11/14 10:14:27;;;;;;;38.93;24.87;;;7.10;99.90;;;;;;5054921;28;20615;-78
2022/11/14 10:17:07;;;;;;;40.47;24.57;;;7.20;99.90;;;;;;5053251;28;20218;-78
2022/11/14 10:19:41;;;;;;;39.97;23.23;;;7.30;99.90;;;;;;5054339;28;20796;-79
2022/11/14 10:22:27;;;;;;;39.73;23.43;;;7.40;99.90;;;;;;5050225;28;20202;-79
2022/11/14 10:25:18;;;;;;;33.43;21.67;;;7.50;99.90;;;;;;5034518;28;20218;-78
2022/11/14 10:27:56;;;;;;;35.10;23.90;;;7.50;99.90;;;;;;5040235;28;20194;-78
2022/11/14 10:30:23;;;;;;;37.63;23.17;;;7.60;99.90;;;;;;5073930;28;20197;-77
2022/11/14 10:33:03;;;;;;;37.53;23.00;;;7.70;99.90;;;;;;5073808;28;20201;-78
2022/11/14 10:35:35;;;;;;;35.73;22.63;;;7.80;99.90;;;;;;5074290;28;20211;-78
2022/11/14 10:38:08;;;;;;;37.03;23.77;;;7.90;99.90;;;;;;5050985;28;20226;-77
2022/11/14 10:40:38;;;;;;;34.57;22.57;;;8.00;99.90;;;;;;5053738;28;20197;-77
2022/11/14 10:43:17;;;;;;;33.13;22.07;;;8.00;99.90;;;;;;5043612;28;20220;-80
2022/11/14 10:45:50;;;;;;;29.30;20.10;;;8.10;99.90;;;;;;5073673;28;20276;-77
2022/11/14 10:48:28;;;;;;;30.83;20.13;;;8.20;99.90;;;;;;5071373;28;20576;-78
2022/11/14 10:50:58;;;;;;;29.03;19.50;;;8.20;99.90;;;;;;5042648;28;20252;-81
2022/11/14 10:53:36;;;;;;;28.93;20.27;;;8.30;99.90;;;;;;5041891;28;20485;-77
2022/11/14 10:56:04;;;;;;;32.23;20.60;;;8.40;99.90;;;;;;5033949;28;20190;-78
2022/11/14 10:58:34;;;;;;;28.03;19.53;;;8.50;99.90;;;;;;5053070;28;20230;-78
2022/11/14 11:01:43;;;;;;;28.23;20.53;;;8.60;99.90;;;;;;5034667;28;20210;-78
2022/11/14 11:04:19;;;;;;;28.00;19.20;;;8.60;99.90;;;;;;4995205;28;20293;-79
2022/11/14 11:06:46;;;;;;;29.73;18.40;;;8.70;99.90;;;;;;5033290;28;20205;-78
2022/11/14 11:12:03;;;;;;;27.33;18.93;;;8.90;99.90;;;;;;5053010;28;20193;-78
2022/11/14 11:14:31;;;;;;;29.30;18.13;;;9.00;99.90;;;;;;5038976;28;20214;-78
2022/11/14 11:17:15;;;;;;;23.60;17.80;;;9.00;99.90;;;;;;5033841;28;20230;-80
2022/11/14 11:19:44;;;;;;;26.53;17.23;;;9.00;99.90;;;;;;5067412;28;20196;-78
2022/11/14 11:22:28;;;;;;;24.13;17.40;;;9.10;99.90;;;;;;5052915;28;20198;-78
2022/11/14 11:24:55;;;;;;;24.80;17.53;;;9.10;99.90;;;;;;5045290;28;20656;-78
2022/11/14 11:27:24;;;;;;;25.23;17.43;;;9.20;99.90;;;;;;5032419;28;20199;-78
2022/11/14 11:30:04;;;;;;;23.33;15.40;;;9.20;99.90;;;;;;5049472;28;20225;-78
2022/11/14 11:32:31;;;;;;;21.80;16.00;;;9.30;99.90;;;;;;5046904;28;20587;-78
2022/11/14 11:35:02;;;;;;;24.03;16.53;;;9.30;99.90;;;;;;5060521;28;20201;-77
2022/11/14 11:37:32;;;;;;;22.43;16.40;;;9.30;99.90;;;;;;5051675;28;20229;-80
2022/11/14 11:40:02;;;;;;;23.03;15.33;;;9.40;99.90;;;;;;5052334;28;20312;-78
2022/11/14 11:42:38;;;;;;;27.27;17.03;;;9.40;99.90;;;;;;5052620;28;20206;-79
2022/11/14 11:45:14;;;;;;;22.33;15.87;;;9.50;99.90;;;;;;5039915;28;20297;-79
2022/11/14 11:47:42;;;;;;;24.10;15.30;;;9.50;99.90;;;;;;5031820;28;20264;-79
2022/11/14 11:50:16;;;;;;;19.97;15.83;;;9.60;99.90;;;;;;5045384;28;20250;-79
2022/11/14 11:52:50;;;;;;;22.10;15.27;;;9.60;99.90;;;;;;5033075;28;20214;-78
2022/11/14 11:55:21;;;;;;;23.47;17.60;;;9.70;99.90;;;;;;5051695;28;20646;-77
2022/11/14 11:57:54;;;;;;;20.97;16.20;;;9.70;99.90;;;;;;5051830;28;20264;-79
2022/11/14 12:00:22;;;;;;;21.33;16.03;;;9.70;99.90;;;;;;5052327;28;20206;-78
2022/11/14 12:02:51;;;;;;;23.20;16.40;;;9.70;99.90;;;;;;5050153;28;20214;-79
2022/11/14 12:05:35;;;;;;;20.77;15.00;;;9.70;99.90;;;;;;5048724;28;20214;-79
2022/11/14 12:08:06;;;;;;;23.13;16.33;;;9.80;99.90;;;;;;5047721;28;20194;-78
2022/11/14 12:10:36;;;;;;;19.30;14.10;;;9.80;99.90;;;;;;5052061;28;20194;-78
2022/11/14 12:13:27;;;;;;;19.57;15.63;;;9.70;99.90;;;;;;5051339;28;20363;-79
2022/11/14 12:16:06;;;;;;;18.70;15.23;;;9.70;99.90;;;;;;5033358;28;20340;-79
2022/11/14 12:19:08;;;;;;;22.73;15.90;;;9.70;99.90;;;;;;5051422;28;20641;-80
2022/11/14 12:21:51;;;;;;;20.57;15.07;;;9.70;99.90;;;;;;5018697;28;20240;-78
2022/11/14 12:24:45;;;;;;;20.77;16.00;;;9.80;99.90;;;;;;5032389;28;20202;-79
2022/11/14 12:27:24;;;;;;;24.10;16.13;;;9.80;99.90;;;;;;5002258;28;20606;-79
2022/11/14 12:30:12;;;;;;;19.40;14.90;;;9.80;99.90;;;;;;5049317;28;20197;-79
2022/11/14 12:32:45;;;;;;;20.87;16.13;;;9.80;99.90;;;;;;5047220;28;20198;-79
2022/11/14 12:35:19;;;;;;;26.03;15.80;;;9.80;99.90;;;;;;5052306;28;20202;-78
2022/11/14 12:37:50;;;;;;;22.03;16.63;;;9.80;99.90;;;;;;5051785;28;20637;-78
2022/11/14 12:40:30;;;;;;;17.30;14.50;;;9.80;99.90;;;;;;5043700;28;20222;-77
2022/11/14 12:42:59;;;;;;;23.13;15.60;;;9.80;99.90;;;;;;5048880;28;20216;-78
2022/11/14 12:45:58;;;;;;;22.83;16.50;;;9.80;99.90;;;;;;5046015;28;20201;-79
2022/11/14 12:48:37;;;;;;;22.23;16.00;;;9.90;99.90;;;;;;5032230;28;20201;-77
2022/11/14 12:51:06;;;;;;;20.63;15.80;;;9.90;99.90;;;;;;5031819;28;20467;-78